Terminal Aerodrome Forecast
Issued by NWS

Home | Current Version | Previous Version | Text Only | Print | Product List | Glossary Off
Versions: 1 2 3 4 5 6 7 8 9 10 11 12 13 14 15 16 17 18 19 20

000
FTUS43 KGRB 202000 AAA
TAFATW
TAF AMD
KATW 202057Z 2021/2118 25012G18KT P6SM SCT030
     FM202200 28011G18KT P6SM BKN035
     FM210000 29007KT P6SM SCT035 BKN250
     FM210200 28003KT P6SM VCSH BKN035
     FM210700 35006KT 5SM -SHRA BR SCT012 OVC020
      TEMPO 2108/2112 3SM SHRA OVC012
     FM211500 36011KT P6SM VCSH BKN020=

USA.gov is the U.S. government's official web portal to all federal, state and local government web resources and services.